createdAt,value
2018-07-13T00:00:26.362Z,43.90
2018-07-13T00:01:57.929Z,43.20
2018-07-13T00:03:29.497Z,44.80
2018-07-13T00:05:01.064Z,45.90
2018-07-13T00:06:32.636Z,40.50
2018-07-13T00:08:04.203Z,42.80
2018-07-13T00:09:35.771Z,44.20
2018-07-13T00:11:07.438Z,40.40
2018-07-13T00:12:38.906Z,43.30
2018-07-13T00:14:10.477Z,43.90
2018-07-13T00:15:42.044Z,43.90
2018-07-13T00:17:13.712Z,43.50
2018-07-13T00:18:45.182Z,44.80
2018-07-13T00:20:16.748Z,42.70
2018-07-13T00:21:48.316Z,42.30
2018-07-13T00:23:19.928Z,47.20
2018-07-13T00:24:51.456Z,46.70
2018-07-13T00:26:23.021Z,45.00
2018-07-13T00:27:54.592Z,51.80
2018-07-13T00:29:26.258Z,51.70
2018-07-13T00:30:57.725Z,52.10
2018-07-13T00:32:29.298Z,53.10
2018-07-13T00:34:00.866Z,55.00
2018-07-13T00:35:32.462Z,53.70
2018-07-13T00:37:03.999Z,54.20
2018-07-13T00:38:35.566Z,53.50
2018-07-13T00:40:07.133Z,57.10
2018-07-13T00:41:38.702Z,61.20
2018-07-13T00:43:10.270Z,62.60
2018-07-13T00:44:41.838Z,60.60
2018-07-13T00:46:13.406Z,60.00
2018-07-13T00:47:45.324Z,57.10
2018-07-13T00:49:16.549Z,55.60
2018-07-13T00:50:48.110Z,58.80
2018-07-13T00:52:19.679Z,58.20
2018-07-13T00:53:51.346Z,55.00
2018-07-13T00:55:22.815Z,51.60
2018-07-13T00:56:54.383Z,52.80
2018-07-13T00:58:25.951Z,52.30
2018-07-13T00:59:57.524Z,48.80
2018-07-13T01:01:29.088Z,44.20
2018-07-13T01:03:00.656Z,38.10
2018-07-13T01:04:32.223Z,42.50
2018-07-13T01:06:03.891Z,42.70
2018-07-13T01:07:35.359Z,43.70
2018-07-13T01:09:06.927Z,42.20
2018-07-13T01:10:38.495Z,42.40
2018-07-13T01:12:10.065Z,42.60
2018-07-13T01:13:41.631Z,42.70
2018-07-13T01:15:13.211Z,43.40
2018-07-13T01:16:44.767Z,40.80
2018-07-13T01:18:16.435Z,42.60
2018-07-13T01:19:47.904Z,41.00
2018-07-13T01:21:19.520Z,40.90
2018-07-13T01:22:51.040Z,41.60
2018-07-13T01:24:22.710Z,42.40
2018-07-13T01:25:54.175Z,39.80
2018-07-13T01:27:25.744Z,43.00
2018-07-13T01:28:57.312Z,42.00
2018-07-13T01:30:28.879Z,40.70
2018-07-13T01:32:00.447Z,39.10
2018-07-13T01:33:32.015Z,39.00
2018-07-13T01:35:03.582Z,38.00
2018-07-13T01:36:35.150Z,38.20
2018-07-13T01:38:06.734Z,40.30
2018-07-13T01:39:38.286Z,38.60
2018-07-13T01:41:09.854Z,38.30
2018-07-13T01:42:41.523Z,38.30
2018-07-13T01:44:12.989Z,38.70
2018-07-13T01:45:44.556Z,41.80
2018-07-13T01:47:16.124Z,41.40
2018-07-13T01:48:47.793Z,41.60
2018-07-13T01:50:19.259Z,40.30
2018-07-13T01:51:50.827Z,41.90
2018-07-13T01:53:22.394Z,40.20
2018-07-13T01:54:57.263Z,40.60
2018-07-13T01:56:30.539Z,40.10
2018-07-13T01:58:02.043Z,37.80
2018-07-13T01:59:31.686Z,39.60
2018-07-13T02:01:05.336Z,40.00
2018-07-13T02:02:36.003Z,41.10
2018-07-13T02:04:06.595Z,40.70
2018-07-13T02:05:34.938Z,40.30
2018-07-13T02:07:06.502Z,41.50
2018-07-13T02:08:38.069Z,42.00
2018-07-13T02:10:09.637Z,44.20
2018-07-13T02:11:41.206Z,48.30
2018-07-13T02:13:12.774Z,46.20
2018-07-13T02:14:44.339Z,50.10
2018-07-13T02:16:15.907Z,51.80
2018-07-13T02:17:47.519Z,54.30
2018-07-13T02:19:19.392Z,53.60
2018-07-13T02:20:50.609Z,59.60
2018-07-13T02:22:22.177Z,61.60
2018-07-13T02:23:53.744Z,62.60
2018-07-13T02:25:25.411Z,64.40
2018-07-13T02:26:56.878Z,64.60
2018-07-13T02:28:28.445Z,65.40
2018-07-13T02:30:00.017Z,61.80
2018-07-13T02:31:31.584Z,64.40
2018-07-13T02:33:03.147Z,69.80
2018-07-13T02:34:34.713Z,66.20
2018-07-13T02:36:06.281Z,67.70
2018-07-13T02:37:37.947Z,68.40
2018-07-13T02:39:09.515Z,69.60
2018-07-13T02:40:40.989Z,68.90
2018-07-13T02:42:12.556Z,66.70
2018-07-13T02:43:44.116Z,68.40
2018-07-13T02:45:15.682Z,67.60
2018-07-13T02:46:47.249Z,67.60
2018-07-13T02:48:18.816Z,70.00
2018-07-13T02:49:50.487Z,69.90
2018-07-13T02:51:21.949Z,66.70
2018-07-13T02:52:53.517Z,73.90
2018-07-13T02:54:25.088Z,73.50
2018-07-13T02:55:56.749Z,75.50
2018-07-13T02:57:28.216Z,77.50
2018-07-13T02:58:59.786Z,77.00
2018-07-13T03:00:31.349Z,73.80
2018-07-13T03:02:02.916Z,76.90
2018-07-13T03:03:34.483Z,74.30
2018-07-13T03:05:06.050Z,76.90
2018-07-13T03:06:37.616Z,77.00
2018-07-13T03:08:09.183Z,77.20
2018-07-13T03:09:40.749Z,77.90
2018-07-13T03:11:12.316Z,77.40
2018-07-13T03:12:43.882Z,76.70
2018-07-13T03:14:15.800Z,81.10
2018-07-13T03:15:47.017Z,80.10
2018-07-13T03:17:18.583Z,76.80
2018-07-13T03:18:50.151Z,84.30
2018-07-13T03:20:21.716Z,84.60
2018-07-13T03:21:53.282Z,80.90
2018-07-13T03:23:24.850Z,85.10
2018-07-13T03:24:56.416Z,83.50
2018-07-13T03:26:27.982Z,84.80
2018-07-13T03:27:59.547Z,85.10
2018-07-13T03:29:31.114Z,83.20
2018-07-13T03:31:02.681Z,78.50
2018-07-13T03:32:34.347Z,87.00
2018-07-13T03:34:05.814Z,86.80
2018-07-13T03:35:37.380Z,84.10
2018-07-13T03:37:08.946Z,86.80
2018-07-13T03:38:40.513Z,86.90
2018-07-13T03:40:12.079Z,82.70
2018-07-13T03:41:43.645Z,84.70
2018-07-13T03:43:15.211Z,83.90
2018-07-13T03:44:46.778Z,80.90
2018-07-13T03:46:18.345Z,85.50
2018-07-13T03:47:49.911Z,81.50
2018-07-13T03:49:21.476Z,82.10
2018-07-13T03:50:53.294Z,79.00
2018-07-13T03:52:24.609Z,82.50
2018-07-13T03:53:56.176Z,86.70
2018-07-13T03:55:27.742Z,80.80
2018-07-13T03:56:59.311Z,83.50
2018-07-13T03:58:30.875Z,78.30
2018-07-13T04:00:02.442Z,80.20
2018-07-13T04:01:34.008Z,86.30
2018-07-13T04:03:05.574Z,86.20
2018-07-13T04:04:37.140Z,87.60
2018-07-13T04:06:08.707Z,81.00
2018-07-13T04:07:40.274Z,87.20
2018-07-13T04:09:11.938Z,90.30
2018-07-13T04:10:43.405Z,87.40
2018-07-13T04:12:14.971Z,93.20
2018-07-13T04:13:46.537Z,90.10
2018-07-13T04:15:18.103Z,85.60
2018-07-13T04:16:49.671Z,89.70
2018-07-13T04:18:21.236Z,84.50
2018-07-13T04:19:52.802Z,89.00
2018-07-13T04:21:24.468Z,82.30
2018-07-13T04:22:55.934Z,86.00
2018-07-13T04:24:27.511Z,84.30
2018-07-13T04:25:59.066Z,88.90
2018-07-13T04:27:30.733Z,84.70
2018-07-13T04:29:02.198Z,84.20
2018-07-13T04:30:33.765Z,84.10
2018-07-13T04:32:05.330Z,82.40
2018-07-13T04:33:36.898Z,79.70
2018-07-13T04:35:08.463Z,85.30
2018-07-13T04:36:40.037Z,89.40
2018-07-13T04:38:11.595Z,94.40
2018-07-13T04:39:43.161Z,80.40
2018-07-13T04:41:14.727Z,82.30
2018-07-13T04:42:46.292Z,85.30
2018-07-13T04:44:17.857Z,88.10
2018-07-13T04:45:49.724Z,86.00
2018-07-13T04:47:20.989Z,86.20
2018-07-13T04:48:52.556Z,90.30
2018-07-13T04:50:24.124Z,91.20
2018-07-13T04:51:55.687Z,85.90
2018-07-13T04:53:27.252Z,97.40
2018-07-13T04:54:58.817Z,88.20
2018-07-13T04:56:30.385Z,82.10
2018-07-13T04:58:01.950Z,88.70
2018-07-13T04:59:33.515Z,86.20
2018-07-13T05:01:05.083Z,81.00
2018-07-13T05:02:36.647Z,91.50
2018-07-13T05:04:08.413Z,98.10
2018-07-13T05:05:39.779Z,97.60
2018-07-13T05:07:11.344Z,105.90
2018-07-13T05:08:42.909Z,94.10
2018-07-13T05:10:14.475Z,81.90
2018-07-13T05:11:46.041Z,86.20
2018-07-13T05:13:17.607Z,83.60
2018-07-13T05:14:49.172Z,82.30
2018-07-13T05:16:20.738Z,84.00
2018-07-13T05:17:52.303Z,89.50
2018-07-13T05:19:23.869Z,88.90
2018-07-13T05:20:55.436Z,90.50
2018-07-13T05:22:27.217Z,96.20
2018-07-13T05:23:58.567Z,165.80
2018-07-13T05:25:30.135Z,173.50
2018-07-13T05:27:01.697Z,142.50
2018-07-13T05:28:33.263Z,135.40
2018-07-13T05:30:04.831Z,112.80
2018-07-13T05:31:36.396Z,117.40
2018-07-13T05:33:07.961Z,110.00
2018-07-13T05:34:39.528Z,107.20
2018-07-13T05:36:11.094Z,101.80
2018-07-13T05:37:42.660Z,104.40
2018-07-13T05:39:14.228Z,103.10
2018-07-13T05:40:45.895Z,101.80
2018-07-13T05:42:17.359Z,100.00
2018-07-13T05:43:48.925Z,101.80
2018-07-13T05:45:20.498Z,100.30
2018-07-13T05:46:52.058Z,98.80
2018-07-13T05:48:23.624Z,99.20
2018-07-13T05:49:55.191Z,92.80
2018-07-13T05:51:26.757Z,98.70
2018-07-13T05:52:58.322Z,102.90
2018-07-13T05:54:29.889Z,93.20
2018-07-13T05:56:01.456Z,98.70
2018-07-13T05:57:33.023Z,96.10
2018-07-13T05:59:04.789Z,95.30
2018-07-13T06:00:36.156Z,95.80
2018-07-13T06:02:07.722Z,98.10
2018-07-13T06:03:39.318Z,95.10
2018-07-13T06:05:10.855Z,96.90
2018-07-13T06:06:42.421Z,97.20
2018-07-13T06:08:13.987Z,93.60
2018-07-13T06:09:45.586Z,94.70
2018-07-13T06:11:17.122Z,97.80
2018-07-13T06:12:48.687Z,92.00
2018-07-13T06:14:20.253Z,93.40
2018-07-13T06:15:51.821Z,97.90
2018-07-13T06:17:23.487Z,95.60
2018-07-13T06:18:54.953Z,93.90
2018-07-13T06:20:26.523Z,94.50
2018-07-13T06:21:58.086Z,100.20
2018-07-13T06:23:29.652Z,95.80
2018-07-13T06:25:01.620Z,95.50
2018-07-13T06:26:32.786Z,93.80
2018-07-13T06:28:04.352Z,91.50
2018-07-13T06:29:36.023Z,91.00
2018-07-13T06:31:07.487Z,90.10
2018-07-13T06:32:39.052Z,94.10
2018-07-13T06:34:10.618Z,92.70
2018-07-13T06:35:42.285Z,86.60
2018-07-13T06:37:13.752Z,87.50
2018-07-13T06:38:45.318Z,87.80
2018-07-13T06:40:16.884Z,83.90
2018-07-13T06:41:48.451Z,86.80
2018-07-13T06:43:20.017Z,82.10
2018-07-13T06:44:51.654Z,81.80
2018-07-13T06:46:23.151Z,87.70
2018-07-13T06:47:54.717Z,81.90
2018-07-13T06:49:26.286Z,83.30
2018-07-13T06:50:57.850Z,78.90
2018-07-13T06:52:29.417Z,83.90
2018-07-13T06:54:01.183Z,82.10
2018-07-13T06:55:32.549Z,78.20
2018-07-13T06:57:04.116Z,84.20
2018-07-13T06:58:35.684Z,83.00
2018-07-13T07:00:07.249Z,80.50
2018-07-13T07:01:38.815Z,80.40
2018-07-13T07:03:10.382Z,81.70
2018-07-13T07:04:41.949Z,79.20
2018-07-13T07:06:13.552Z,83.20
2018-07-13T07:07:45.122Z,80.80
2018-07-13T07:09:16.649Z,84.10
2018-07-13T07:10:48.213Z,84.80
2018-07-13T07:12:19.880Z,84.70
2018-07-13T07:13:51.346Z,84.30
2018-07-13T07:15:22.912Z,84.50
2018-07-13T07:16:54.478Z,85.50
2018-07-13T07:18:26.047Z,86.40
2018-07-13T07:19:57.611Z,84.70
2018-07-13T07:21:29.177Z,85.90
2018-07-13T07:23:00.744Z,88.00
2018-07-13T07:24:32.388Z,90.90
2018-07-13T07:26:03.877Z,84.20
2018-07-13T07:27:35.443Z,85.00
2018-07-13T07:29:07.010Z,84.80
2018-07-13T07:30:38.734Z,86.40
2018-07-13T07:32:10.143Z,87.30
2018-07-13T07:33:41.709Z,82.20
2018-07-13T07:35:13.275Z,87.30
2018-07-13T07:36:44.842Z,91.70
2018-07-13T07:38:16.408Z,83.90
2018-07-13T07:39:47.975Z,89.10
2018-07-13T07:41:19.540Z,93.10
2018-07-13T07:42:51.107Z,95.50
2018-07-13T07:44:22.673Z,89.70
2018-07-13T07:45:54.239Z,88.10
2018-07-13T07:47:25.807Z,73.70
2018-07-13T07:48:57.473Z,77.90
2018-07-13T07:50:28.940Z,81.20
2018-07-13T07:52:00.506Z,74.80
2018-07-13T07:53:32.073Z,78.20
2018-07-13T07:55:03.739Z,75.80
2018-07-13T07:56:35.210Z,75.50
2018-07-13T07:58:06.772Z,78.00
2018-07-13T07:59:38.338Z,78.60
2018-07-13T08:01:09.905Z,82.20
2018-07-13T08:02:41.471Z,82.30
2018-07-13T08:04:13.037Z,85.30
2018-07-13T08:05:44.625Z,82.40
2018-07-13T08:07:16.769Z,81.80
2018-07-13T08:08:47.737Z,74.30
2018-07-13T08:10:19.303Z,72.00
2018-07-13T08:11:50.869Z,78.60
2018-07-13T08:13:22.437Z,77.40
2018-07-13T08:14:54.002Z,77.70
2018-07-13T08:16:25.567Z,82.30
2018-07-13T08:17:57.135Z,80.60
2018-07-13T08:19:28.714Z,79.70
2018-07-13T08:21:00.267Z,83.20
2018-07-13T08:22:31.832Z,83.50
2018-07-13T08:24:03.397Z,83.30
2018-07-13T08:25:35.214Z,80.80
2018-07-13T08:27:06.530Z,82.00
2018-07-13T08:28:38.096Z,81.50
2018-07-13T08:30:09.661Z,79.90
2018-07-13T08:31:41.231Z,81.40
2018-07-13T08:33:12.794Z,80.70
2018-07-13T08:34:44.360Z,76.40
2018-07-13T08:36:15.930Z,78.50
2018-07-13T08:37:47.497Z,77.20
2018-07-13T08:39:19.059Z,80.10
2018-07-13T08:40:50.624Z,80.50
2018-07-13T08:42:22.191Z,78.20
2018-07-13T08:43:53.867Z,80.70
2018-07-13T08:45:25.324Z,79.20
2018-07-13T08:46:56.889Z,80.20
2018-07-13T08:48:28.455Z,78.20
2018-07-13T08:50:00.022Z,77.60
2018-07-13T08:51:31.592Z,72.20
2018-07-13T08:53:03.154Z,72.10
2018-07-13T08:54:34.720Z,74.50
2018-07-13T08:56:06.415Z,73.40
2018-07-13T08:57:37.853Z,73.20
2018-07-13T08:59:09.419Z,76.00
2018-07-13T09:00:40.985Z,69.20
2018-07-13T09:02:12.652Z,72.40
2018-07-13T09:03:44.118Z,76.20
2018-07-13T09:05:15.685Z,76.80
2018-07-13T09:06:47.250Z,72.60
2018-07-13T09:08:18.817Z,76.00
2018-07-13T09:09:50.383Z,74.10
2018-07-13T09:11:21.949Z,72.70
2018-07-13T09:12:53.569Z,73.90
2018-07-13T09:14:25.084Z,73.80
2018-07-13T09:15:56.650Z,71.40
2018-07-13T09:17:28.217Z,73.20
2018-07-13T09:18:59.782Z,78.40
2018-07-13T09:20:31.449Z,77.90
2018-07-13T09:22:02.915Z,77.10
2018-07-13T09:23:34.482Z,77.00
2018-07-13T09:25:06.050Z,72.40
2018-07-13T09:26:37.866Z,76.50
2018-07-13T09:28:09.183Z,69.50
2018-07-13T09:29:40.750Z,70.00
2018-07-13T09:31:12.324Z,70.80
2018-07-13T09:32:43.883Z,69.20
2018-07-13T09:34:15.450Z,67.00
2018-07-13T09:35:47.019Z,66.10
2018-07-13T09:37:18.583Z,67.50
2018-07-13T09:38:50.349Z,65.10
2018-07-13T09:40:21.716Z,65.50
2018-07-13T09:41:53.283Z,63.00
2018-07-13T09:43:24.849Z,60.00
2018-07-13T09:44:56.537Z,62.90
2018-07-13T09:46:28.123Z,65.20
2018-07-13T09:47:59.757Z,60.10
2018-07-13T09:49:31.114Z,60.60
2018-07-13T09:51:02.690Z,63.40
2018-07-13T09:52:34.247Z,62.20
2018-07-13T09:54:06.131Z,64.00
2018-07-13T09:55:37.381Z,63.90
2018-07-13T09:57:09.202Z,63.70
2018-07-13T09:58:40.613Z,60.30
2018-07-13T10:00:12.080Z,57.70
2018-07-13T10:01:43.789Z,61.00
2018-07-13T10:03:15.212Z,60.20
2018-07-13T10:04:46.780Z,60.20
2018-07-13T10:06:18.346Z,59.50
2018-07-13T10:07:50.172Z,55.90
2018-07-13T10:09:21.479Z,57.90
2018-07-13T10:10:53.046Z,56.70
2018-07-13T10:12:24.818Z,56.90
2018-07-13T10:13:56.179Z,53.70
2018-07-13T10:15:27.930Z,53.30
2018-07-13T10:16:59.312Z,53.10
2018-07-13T10:18:31.122Z,53.20
2018-07-13T10:20:02.458Z,50.30
2018-07-13T10:21:34.215Z,54.10
2018-07-13T10:23:05.579Z,50.70
2018-07-13T10:24:37.281Z,51.60
2018-07-13T10:26:08.714Z,51.70
2018-07-13T10:27:40.380Z,50.80
2018-07-13T10:29:11.905Z,47.50
2018-07-13T10:30:43.615Z,48.60
2018-07-13T10:32:14.979Z,44.90
2018-07-13T10:33:46.779Z,42.70
2018-07-13T10:35:18.452Z,45.10
2018-07-13T10:36:49.731Z,42.80
2018-07-13T10:38:21.246Z,40.90
2018-07-13T10:39:52.815Z,41.80
2018-07-13T10:42:56.154Z,42.10
2018-07-13T10:44:27.517Z,40.20
2018-07-13T10:45:59.334Z,40.40
2018-07-13T10:47:30.650Z,39.80
2018-07-13T10:49:02.215Z,37.70
2018-07-13T10:50:34.087Z,38.80
2018-07-13T10:52:05.449Z,38.10
2018-07-13T10:53:36.917Z,38.70
2018-07-13T10:55:08.722Z,39.10
2018-07-13T10:56:40.270Z,38.40
2018-07-13T10:59:43.326Z,38.50
2018-07-13T11:01:14.754Z,36.40
2018-07-13T11:04:17.895Z,37.80
2018-07-13T11:05:49.464Z,38.10
2018-07-13T11:07:21.227Z,35.50
2018-07-13T11:08:52.602Z,34.90
2018-07-13T11:10:24.466Z,33.20
2018-07-13T11:11:55.881Z,31.00
2018-07-13T11:13:27.507Z,30.40
2018-07-13T11:14:59.376Z,27.90
2018-07-13T11:16:30.642Z,28.80
2018-07-13T11:18:02.009Z,29.00
2018-07-13T11:19:33.873Z,29.40
2018-07-13T11:21:05.150Z,28.80
2018-07-13T11:24:08.528Z,30.10
2018-07-13T11:25:39.863Z,30.80
2018-07-13T11:27:11.438Z,33.20
2018-07-13T11:28:43.205Z,32.00
2018-07-13T11:30:15.027Z,32.90
2018-07-13T11:31:46.447Z,32.70
2018-07-13T11:33:17.752Z,31.40
2018-07-13T11:36:20.911Z,34.50
2018-07-13T11:37:52.431Z,34.10
2018-07-13T11:39:24.001Z,35.10
2018-07-13T11:40:55.625Z,34.70
2018-07-13T11:42:27.158Z,35.40
2018-07-13T11:43:58.841Z,34.60
2018-07-13T11:45:30.815Z,37.40
2018-07-13T11:47:02.384Z,39.80
2018-07-13T11:48:33.731Z,40.20
2018-07-13T11:50:05.059Z,40.90
2018-07-13T11:51:36.581Z,42.60
2018-07-13T11:54:39.726Z,42.00
2018-07-13T11:56:11.297Z,46.30
2018-07-13T11:57:42.869Z,44.90
2018-07-13T11:59:14.445Z,47.50
2018-07-13T12:00:46.318Z,48.90
2018-07-13T12:02:17.588Z,50.50
2018-07-13T12:03:49.163Z,49.10
2018-07-13T12:05:21.047Z,51.20
2018-07-13T12:06:52.411Z,49.20
2018-07-13T12:08:24.186Z,50.00
2018-07-13T12:09:55.455Z,50.70
2018-07-13T12:11:27.030Z,52.10
2018-07-13T12:12:58.603Z,52.00
2018-07-13T12:16:01.753Z,51.70
2018-07-13T12:17:33.412Z,56.30
2018-07-13T12:19:04.902Z,55.00
2018-07-13T12:20:36.475Z,56.10
2018-07-13T12:22:08.050Z,51.00
2018-07-13T12:23:39.626Z,52.70
2018-07-13T12:25:11.300Z,50.10
2018-07-13T12:26:42.774Z,51.80
2018-07-13T12:28:14.350Z,51.80
2018-07-13T12:29:46.449Z,50.60
2018-07-13T12:31:17.503Z,52.20
2018-07-13T12:32:49.077Z,52.50
2018-07-13T12:34:20.679Z,52.10
2018-07-13T12:35:52.537Z,54.10
2018-07-13T12:37:23.805Z,54.70
2018-07-13T12:38:55.381Z,54.70
2018-07-13T12:40:26.964Z,55.20
2018-07-13T12:45:01.787Z,59.20
2018-07-13T12:46:33.264Z,56.50
2018-07-13T12:49:36.417Z,57.00
2018-07-13T12:51:07.994Z,59.30
2018-07-13T12:52:39.571Z,58.80
2018-07-13T12:54:11.256Z,60.50
2018-07-13T12:55:42.724Z,60.40
2018-07-13T12:57:14.504Z,59.60
2018-07-13T12:58:46.182Z,59.00
2018-07-13T13:00:17.456Z,58.80
2018-07-13T13:01:49.034Z,59.20
2018-07-13T13:06:23.982Z,60.50
2018-07-13T13:07:55.346Z,62.80
2018-07-13T13:09:27.127Z,61.70
2018-07-13T13:12:30.385Z,60.80
2018-07-13T13:14:01.659Z,63.60
2018-07-13T13:15:33.537Z,62.60
2018-07-13T13:17:04.862Z,63.70
2018-07-13T13:20:07.973Z,63.40
2018-07-13T13:21:39.565Z,63.20
2018-07-13T13:23:11.134Z,62.60
2018-07-13T13:26:14.387Z,64.80
2018-07-13T13:27:46.384Z,65.20
2018-07-13T13:29:17.507Z,68.20
2018-07-13T13:30:49.021Z,72.70
2018-07-13T13:35:23.756Z,69.00
2018-07-13T13:38:26.915Z,73.00
2018-07-13T13:41:30.477Z,75.00
2018-07-13T13:43:01.655Z,73.80
2018-07-13T13:44:33.234Z,72.40
2018-07-13T13:46:04.812Z,74.10
2018-07-13T13:47:36.594Z,73.10
2018-07-13T13:49:07.970Z,70.90
2018-07-13T13:50:39.550Z,70.70
2018-07-13T13:52:11.172Z,73.20
2018-07-13T13:55:14.288Z,68.80
2018-07-13T13:56:46.171Z,66.20
2018-07-13T13:58:17.446Z,64.70
2018-07-13T13:59:49.034Z,67.90
2018-07-13T14:01:20.708Z,63.90
2018-07-13T14:04:23.791Z,62.20
2018-07-13T14:05:55.345Z,61.00
2018-07-13T14:07:26.925Z,58.00
2018-07-13T14:10:30.812Z,54.40
2018-07-13T14:12:01.752Z,54.30
2018-07-13T14:13:33.246Z,52.00
2018-07-13T14:15:04.827Z,52.20
2018-07-13T14:16:36.931Z,52.00
2018-07-13T14:18:07.988Z,50.10
2018-07-13T14:19:39.669Z,49.60
2018-07-13T14:21:11.761Z,50.00
2018-07-13T14:22:42.732Z,49.70
2018-07-13T14:24:14.312Z,49.50
2018-07-13T14:25:46.196Z,50.20
2018-07-13T14:27:17.475Z,50.50
2018-07-13T14:28:49.071Z,49.10
2018-07-13T14:30:20.636Z,45.80
2018-07-13T14:33:23.807Z,43.00
2018-07-13T14:36:26.962Z,40.90
2018-07-13T14:37:59.079Z,40.00
2018-07-13T14:41:01.810Z,38.10
2018-07-13T14:42:33.491Z,39.60
2018-07-13T14:44:04.919Z,40.20
2018-07-13T14:47:09.069Z,38.20
2018-07-13T14:48:39.618Z,39.10
2018-07-13T14:50:11.199Z,38.00
2018-07-13T14:51:42.782Z,35.40
2018-07-13T14:53:14.363Z,35.80
2018-07-13T14:54:45.945Z,35.30
2018-07-13T14:56:17.527Z,38.10
2018-07-13T14:57:50.240Z,35.50
2018-07-13T14:59:20.929Z,36.50
2018-07-13T15:00:52.579Z,37.00
2018-07-13T15:02:24.162Z,32.70
2018-07-13T15:05:27.022Z,30.20
2018-07-13T15:06:58.620Z,30.60
2018-07-13T15:08:30.188Z,27.80
2018-07-13T15:10:02.046Z,24.80
2018-07-13T15:13:05.070Z,22.00
2018-07-13T15:16:08.708Z,22.30
2018-07-13T15:17:39.687Z,20.70
2018-07-13T15:19:11.367Z,16.90
2018-07-13T15:20:43.579Z,17.20
2018-07-13T15:23:46.539Z,13.70
2018-07-13T15:25:17.598Z,12.60
2018-07-13T15:26:49.386Z,12.00
2018-07-13T15:28:20.764Z,13.80
2018-07-13T15:29:52.550Z,12.90
2018-07-13T15:32:55.512Z,15.20
2018-07-13T15:34:27.095Z,14.10
2018-07-13T15:35:58.678Z,15.40
2018-07-13T15:37:30.785Z,15.00
2018-07-13T15:39:02.249Z,15.00
2018-07-13T15:40:33.427Z,14.90
2018-07-13T15:42:05.213Z,15.00
2018-07-13T15:43:37.116Z,14.70
2018-07-13T15:45:08.177Z,15.10
2018-07-13T15:46:39.761Z,15.70
2018-07-13T15:49:43.449Z,15.60
2018-07-13T15:51:14.733Z,15.60
2018-07-13T15:52:46.095Z,14.50
2018-07-13T15:55:49.259Z,16.60
2018-07-13T15:57:20.943Z,15.50
2018-07-13T15:58:52.720Z,15.30
2018-07-13T16:00:24.212Z,14.80
2018-07-13T16:01:55.592Z,13.20
2018-07-13T16:03:27.175Z,14.70
2018-07-13T16:04:58.760Z,14.00
2018-07-13T16:12:37.283Z,13.80
2018-07-13T16:14:08.291Z,13.30
2018-07-13T16:15:39.851Z,14.50
2018-07-13T16:17:11.528Z,13.60
2018-07-13T16:20:17.229Z,14.00
2018-07-13T16:21:48.421Z,15.60
2018-07-13T16:23:20.423Z,14.00
2018-07-13T16:24:50.067Z,15.20
2018-07-13T16:26:22.139Z,14.60
2018-07-13T16:27:54.184Z,15.00
2018-07-13T16:29:25.128Z,13.80
2018-07-13T16:30:55.954Z,14.60
2018-07-13T16:33:59.404Z,14.20
2018-07-13T16:38:34.270Z,15.70
2018-07-13T16:40:05.382Z,15.20
2018-07-13T16:44:40.665Z,16.00
2018-07-13T16:46:11.718Z,14.40
2018-07-13T16:47:43.622Z,15.80
2018-07-13T16:49:15.189Z,16.20
2018-07-13T16:50:46.458Z,17.70
2018-07-13T16:52:17.849Z,17.00
2018-07-13T16:55:21.038Z,15.60
2018-07-13T16:58:24.515Z,16.40
2018-07-13T16:59:56.075Z,16.00
2018-07-13T17:01:27.655Z,16.40
2018-07-13T17:02:58.968Z,15.90
2018-07-13T17:06:02.827Z,15.80
2018-07-13T17:07:33.688Z,16.70
2018-07-13T17:09:05.276Z,17.30
2018-07-13T17:10:36.857Z,16.00
2018-07-13T17:12:08.524Z,16.40
2018-07-13T17:15:11.631Z,15.80
2018-07-13T17:16:43.190Z,15.00
2018-07-13T17:18:14.874Z,16.80
2018-07-13T17:19:46.357Z,17.00
2018-07-13T17:21:17.944Z,15.50
2018-07-13T17:22:49.561Z,15.70
2018-07-13T17:24:21.107Z,16.00
2018-07-13T17:25:52.692Z,16.40
2018-07-13T17:27:24.275Z,16.90
2018-07-13T17:28:55.858Z,15.80
2018-07-13T17:30:27.451Z,16.40
2018-07-13T17:31:59.028Z,16.40
2018-07-13T17:33:30.609Z,16.00
2018-07-13T17:35:02.522Z,16.00
2018-07-13T17:36:33.876Z,15.90
2018-07-13T17:38:05.359Z,16.30
2018-07-13T17:39:37.149Z,17.50
2018-07-13T17:41:08.672Z,16.70
2018-07-13T17:42:40.351Z,15.90
2018-07-13T17:44:11.697Z,16.80
2018-07-13T17:45:43.311Z,16.40
2018-07-13T17:47:14.862Z,17.30
2018-07-13T17:48:46.460Z,16.60
2018-07-13T17:50:18.551Z,18.10
2018-07-13T17:51:49.619Z,16.60
2018-07-13T17:53:21.195Z,17.90
2018-07-13T17:54:52.878Z,17.20
2018-07-13T17:56:24.361Z,17.80
2018-07-13T17:57:55.945Z,16.80
2018-07-13T17:59:27.540Z,18.30
2018-07-13T18:00:59.127Z,16.70
2018-07-13T18:02:30.694Z,17.20
2018-07-13T18:04:02.276Z,16.90
2018-07-13T18:05:34.383Z,15.80
2018-07-13T18:07:05.442Z,16.50
2018-07-13T18:08:37.025Z,16.90
2018-07-13T18:10:08.607Z,17.50
2018-07-13T18:11:40.197Z,17.40
2018-07-13T18:13:12.230Z,18.00
2018-07-13T18:14:43.406Z,17.90
2018-07-13T18:16:14.948Z,17.30
2018-07-13T18:19:18.103Z,17.30
2018-07-13T18:20:49.694Z,16.30
2018-07-13T18:22:21.269Z,17.30
2018-07-13T18:23:52.852Z,16.00
2018-07-13T18:25:24.445Z,16.60
2018-07-13T18:26:56.222Z,16.00
2018-07-13T18:28:27.599Z,15.80
2018-07-13T18:29:59.182Z,15.50
2018-07-13T18:31:31.636Z,14.90
2018-07-13T18:33:02.347Z,14.20
2018-07-13T18:34:33.940Z,13.80
2018-07-13T18:36:05.525Z,13.70
2018-07-13T18:37:37.094Z,14.80
2018-07-13T18:39:09.100Z,13.10
2018-07-13T18:40:40.294Z,13.00
2018-07-13T18:42:11.841Z,13.10
2018-07-13T18:43:43.423Z,13.80
2018-07-13T18:45:15.010Z,12.60
2018-07-13T18:46:46.788Z,13.50
2018-07-13T18:48:18.168Z,13.50
2018-07-13T18:49:49.852Z,14.20
2018-07-13T18:51:21.330Z,14.60
2018-07-13T18:52:52.913Z,14.20
2018-07-13T18:54:24.493Z,14.10
2018-07-13T18:55:56.084Z,14.60
2018-07-13T18:57:27.665Z,13.30
2018-07-13T18:58:59.235Z,13.40
2018-07-13T19:00:30.819Z,13.70
2018-07-13T19:02:02.397Z,13.20
2018-07-13T19:03:34.169Z,13.50
2018-07-13T19:05:05.556Z,13.00
2018-07-13T19:06:37.136Z,12.50
2018-07-13T19:08:08.816Z,13.00
2018-07-13T19:09:40.296Z,12.00
2018-07-13T19:11:11.875Z,13.10
2018-07-13T19:12:43.456Z,12.00
2018-07-13T19:14:15.036Z,11.90
2018-07-13T19:15:46.615Z,12.70
2018-07-13T19:17:18.196Z,11.90
2018-07-13T19:18:49.775Z,12.80
2018-07-13T19:20:21.360Z,12.00
2018-07-13T19:21:52.972Z,11.90
2018-07-13T19:23:24.538Z,13.00
2018-07-13T19:24:56.099Z,12.30
2018-07-13T19:26:27.778Z,12.30
2018-07-13T19:27:59.288Z,11.00
2018-07-13T19:29:30.860Z,11.50
2018-07-13T19:31:02.767Z,12.70
2018-07-13T19:32:34.000Z,12.20
2018-07-13T19:34:05.586Z,11.50
2018-07-13T19:35:37.157Z,11.60
2018-07-13T19:37:08.741Z,11.90
2018-07-13T19:38:40.405Z,10.60
2018-07-13T19:40:11.900Z,11.40
2018-07-13T19:41:43.480Z,11.20
2018-07-13T19:43:15.057Z,11.20
2018-07-13T19:46:18.621Z,11.30
2018-07-13T19:47:49.798Z,9.90
2018-07-13T19:49:21.375Z,11.10
2018-07-13T19:50:52.955Z,10.00
2018-07-13T19:52:24.736Z,11.20
2018-07-13T19:53:56.113Z,7.80
2018-07-13T19:55:27.692Z,8.10
2018-07-13T19:56:59.283Z,9.30
2018-07-13T19:58:30.850Z,10.00
2018-07-13T20:00:02.429Z,9.80
2018-07-13T20:01:34.011Z,9.30
2018-07-13T20:03:05.675Z,9.50
2018-07-13T20:04:37.328Z,9.70
2018-07-13T20:06:08.741Z,8.80
2018-07-13T20:07:40.317Z,9.40
2018-07-13T20:09:11.895Z,8.90
2018-07-13T20:10:43.475Z,11.20
2018-07-13T20:12:15.048Z,9.60
2018-07-13T20:13:46.624Z,10.60
2018-07-13T20:15:18.504Z,10.20
2018-07-13T20:16:49.877Z,11.00
2018-07-13T20:18:21.352Z,10.50
2018-07-13T20:22:56.483Z,8.80
2018-07-13T20:24:27.654Z,8.80
2018-07-13T20:25:59.229Z,9.40
2018-07-13T20:27:30.805Z,9.00
2018-07-13T20:29:02.379Z,8.10
2018-07-13T20:30:33.956Z,7.90
2018-07-13T20:32:05.529Z,7.50
2018-07-13T20:33:37.106Z,8.00
2018-07-13T20:35:08.679Z,10.40
2018-07-13T20:36:40.253Z,10.50
2018-07-13T20:38:11.827Z,9.30
2018-07-13T20:39:43.403Z,8.00
2018-07-13T20:41:15.080Z,7.90
2018-07-13T20:42:46.551Z,7.50
2018-07-13T20:44:18.125Z,7.20
2018-07-13T20:45:49.698Z,8.20
2018-07-13T20:47:21.272Z,8.30
2018-07-13T20:48:52.848Z,9.10
2018-07-13T20:50:24.420Z,9.20
2018-07-13T20:51:55.992Z,7.80
2018-07-13T20:53:27.566Z,10.20
2018-07-13T20:54:59.139Z,11.60
2018-07-13T20:56:30.712Z,12.50
2018-07-13T20:58:02.285Z,9.60